Time;durP1;ratioP1;P1;durP2;ratioP2;P2;SDS_P1;SDS_P2;PMS_P1;PMS_P2;Temp;Humidity;BMP_temperature;BMP_pressure;BME280_temperature;BME280_humidity;BME280_pressure;Samples;Min_cycle;Max_cycle;Signal;HPM_P1;HPM_P2
2023/01/25 00:03:14;;;;;;;2.85;0.85;;;;;;;-2.59;95.34;102081.69;10372970;28;20049;-74
2023/01/25 00:08:15;;;;;;;5.07;1.27;;;;;;;-2.38;95.91;102086.31;10372095;28;20038;-74
2023/01/25 00:13:16;;;;;;;3.15;1.10;;;;;;;-2.32;95.50;102085.28;10371840;28;20046;-75
2023/01/25 00:18:17;;;;;;;3.83;1.02;;;;;;;-2.59;95.85;102032.25;10372042;28;20061;-75
2023/01/25 00:23:17;;;;;;;6.63;1.23;;;;;;;-2.24;95.36;102079.84;10372339;28;20045;-74
2023/01/25 00:28:18;;;;;;;5.80;1.38;;;;;;;-2.32;96.02;102059.25;10372688;28;20053;-75
2023/01/25 00:33:19;;;;;;;6.10;1.35;;;;;;;-2.16;95.74;102075.28;10372956;28;20490;-75
2023/01/25 00:38:37;;;;;;;3.55;1.17;;;;;;;-2.54;96.27;102026.03;10371404;28;20042;-74
2023/01/25 00:43:38;;;;;;;4.68;0.85;;;;;;;-2.79;95.50;101968.59;10372515;28;20505;-75
2023/01/25 00:48:38;;;;;;;7.80;1.48;;;;;;;-2.38;95.67;102049.03;10371827;28;20105;-76
2023/01/25 00:53:39;;;;;;;4.60;0.90;;;;;;;-2.74;95.74;101985.84;10371190;28;20413;-76
2023/01/25 00:58:41;;;;;;;4.13;1.05;;;;;;;-2.30;95.84;102063.53;10371880;28;20030;-76
2023/01/25 01:03:41;;;;;;;8.52;1.30;;;;;;;-2.34;95.77;102067.09;10370463;28;20111;-76
2023/01/25 01:08:42;;;;;;;2.47;1.10;;;;;;;-3.07;95.35;101947.72;10371412;28;20180;-76
2023/01/25 01:13:43;;;;;;;5.18;1.00;;;;;;;-2.74;95.71;102022.28;10376904;28;20464;-76
2023/01/25 01:18:44;;;;;;;4.10;0.90;;;;;;;-2.71;96.11;102033.44;10378929;28;20196;-75
2023/01/25 01:23:45;;;;;;;4.57;1.42;;;;;;;-2.90;96.08;102001.88;10378200;28;20049;-76
2023/01/25 01:28:47;;;;;;;3.25;0.80;;;;;;;-2.76;95.65;102025.75;10378435;28;20038;-76
2023/01/25 01:33:49;;;;;;;2.40;0.93;;;;;;;-2.73;96.00;102043.03;10377920;28;20099;-75
2023/01/25 01:38:50;;;;;;;2.22;0.88;;;;;;;-2.95;95.74;102006.34;10377710;28;20104;-75
2023/01/25 01:43:52;;;;;;;4.05;0.93;;;;;;;-2.70;96.03;102037.72;10378095;28;20060;-75
2023/01/25 01:49:18;;;;;;;3.53;0.90;;;;;;;-2.72;95.94;102036.06;10378371;28;20096;-75
2023/01/25 01:54:31;;;;;;;1.90;0.90;;;;;;;-2.73;96.00;102036.97;10377523;28;20046;-75
2023/01/25 01:59:58;;;;;;;3.60;1.02;;;;;;;-3.03;96.00;101996.13;10376925;28;20099;-75
2023/01/25 02:05:03;;;;;;;6.38;1.27;;;;;;;-2.81;96.24;102047.59;10376521;28;20136;-75
2023/01/25 02:10:08;;;;;;;3.80;1.25;;;;;;;-3.43;96.11;101944.34;10377375;28;20049;-75
2023/01/25 02:15:09;;;;;;;6.75;1.10;;;;;;;-3.35;95.91;101954.53;10375912;28;20072;-75
2023/01/25 02:20:22;;;;;;;1.88;0.82;;;;;;;-2.86;96.60;102042.50;10376878;28;20145;-75
2023/01/25 02:25:22;;;;;;;2.85;1.30;;;;;;;-2.94;96.41;102020.19;10375648;28;20065;-75
2023/01/25 02:30:23;;;;;;;6.03;0.98;;;;;;;-2.96;96.01;102016.78;10375533;28;20033;-75
2023/01/25 02:35:37;;;;;;;3.97;1.00;;;;;;;-2.87;96.26;102037.31;10376335;28;20092;-75
2023/01/25 02:41:02;;;;;;;3.30;1.38;;;;;;;-2.77;96.56;102034.44;10374547;28;20054;-76
2023/01/25 02:46:13;;;;;;;3.35;1.10;;;;;;;-2.94;96.14;102002.84;10374926;28;20053;-75
2023/01/25 02:51:14;;;;;;;5.72;1.10;;;;;;;-3.14;96.18;101971.31;10374890;28;20038;-76
2023/01/25 02:56:15;;;;;;;5.75;1.30;;;;;;;-2.68;95.93;102032.50;10372977;28;20413;-76
2023/01/25 03:01:16;;;;;;;4.95;1.33;;;;;;;-3.02;95.94;101970.97;10369455;28;20045;-76
2023/01/25 03:06:17;;;;;;;5.35;1.30;;;;;;;-3.04;96.20;101991.84;10369201;28;20144;-76
2023/01/25 03:11:18;;;;;;;4.60;1.10;;;;;;;-2.89;96.35;102021.78;10368252;28;20401;-75
2023/01/25 03:16:18;;;;;;;3.45;1.23;;;;;;;-3.55;96.06;101903.09;10345879;28;20452;-74
2023/01/25 03:21:21;;;;;;;4.93;1.17;;;;;;;-2.64;95.97;102044.53;10371856;28;20058;-72
2023/01/25 03:26:23;;;;;;;2.10;0.90;;;;;;;-3.10;95.88;101946.97;10373617;28;20033;-74
2023/01/25 03:31:24;;;;;;;3.80;1.15;;;;;;;-2.82;95.41;101979.09;10374451;28;20042;-74
2023/01/25 03:36:24;;;;;;;4.88;1.00;;;;;;;-2.34;95.09;102056.69;10372218;28;20046;-73
2023/01/25 03:41:25;;;;;;;6.53;0.93;;;;;;;-2.88;95.56;101970.63;10372749;28;20052;-75
2023/01/25 03:46:26;;;;;;;6.47;1.40;;;;;;;-2.81;95.04;101985.19;10372929;28;20506;-73
2023/01/25 03:51:27;;;;;;;5.43;1.08;;;;;;;-3.19;95.45;101924.66;10373067;28;20042;-72
2023/01/25 03:56:27;;;;;;;3.00;1.10;;;;;;;-2.93;95.15;101969.88;10373328;28;20512;-71
2023/01/25 04:01:28;;;;;;;7.53;1.60;;;;;;;-2.82;95.07;101989.50;10372298;28;20061;-74
2023/01/25 04:06:29;;;;;;;10.40;1.50;;;;;;;-2.76;94.89;102004.09;10372068;28;20053;-75
2023/01/25 04:11:29;;;;;;;6.43;1.10;;;;;;;-2.42;95.10;102079.50;10373003;28;20049;-75
2023/01/25 04:16:30;;;;;;;4.10;1.00;;;;;;;-3.10;95.35;101962.56;10373010;28;20041;-78
2023/01/25 04:21:31;;;;;;;2.88;1.10;;;;;;;-3.08;94.77;101973.75;10369257;28;20084;-77
2023/01/25 04:26:32;;;;;;;6.43;1.42;;;;;;;-2.70;95.58;102044.69;10370934;28;20112;-75
2023/01/25 04:31:33;;;;;;;2.75;0.90;;;;;;;-2.72;94.84;102064.69;10372139;28;20115;-74
2023/01/25 04:36:33;;;;;;;3.20;0.90;;;;;;;-3.09;95.85;102003.25;10371897;28;20126;-75
2023/01/25 04:41:34;;;;;;;3.55;1.20;;;;;;;-3.27;94.79;101974.22;10370265;28;20410;-73
2023/01/25 04:46:35;;;;;;;4.00;1.15;;;;;;;-2.72;95.59;102072.47;10375848;28;20072;-71
2023/01/25 04:51:35;;;;;;;4.20;1.10;;;;;;;-3.39;95.34;101974.53;10379323;28;20042;-77
2023/01/25 04:56:36;;;;;;;3.45;1.52;;;;;;;-3.27;95.22;102001.97;10379114;28;20046;-77
2023/01/25 05:01:37;;;;;;;5.20;1.08;;;;;;;-3.21;95.41;102020.00;10379984;28;20041;-77
2023/01/25 05:06:38;;;;;;;5.93;1.15;;;;;;;-2.83;95.43;102086.63;10379514;28;20413;-77
2023/01/25 05:11:39;;;;;;;5.07;1.30;;;;;;;-2.83;95.06;102081.44;10379791;28;20042;-77
2023/01/25 05:16:39;;;;;;;3.28;1.00;;;;;;;-2.90;95.04;102073.81;10378495;28;20053;-77
2023/01/25 05:21:58;;;;;;;2.25;0.98;;;;;;;-3.30;95.21;102002.03;10379626;28;20058;-77
2023/01/25 05:27:02;;;;;;;2.28;0.90;;;;;;;-2.78;95.31;102104.75;10378292;28;20112;-76
2023/01/25 05:32:08;;;;;;;7.67;1.33;;;;;;;-2.83;95.32;102076.22;10377854;28;20557;-76
2023/01/25 05:37:11;;;;;;;6.25;1.23;;;;;;;-3.34;95.26;101985.69;10378221;28;20040;-76
2023/01/25 05:42:14;;;;;;;5.53;1.33;;;;;;;-2.65;95.41;102089.66;10377543;28;20065;-77
2023/01/25 05:47:16;;;;;;;3.25;0.90;;;;;;;-2.52;94.99;102104.03;10377373;28;20509;-76
2023/01/25 05:52:18;;;;;;;4.68;1.30;;;;;;;-2.42;94.76;102100.31;10376640;28;20034;-77
2023/01/25 05:57:18;;;;;;;3.90;1.10;;;;;;;-2.31;95.32;102100.84;10376331;28;20413;-77
2023/01/25 06:02:19;;;;;;;2.38;0.90;;;;;;;-2.14;95.21;102091.72;10376186;28;20052;-77
2023/01/25 06:07:20;;;;;;;4.00;1.23;;;;;;;-2.07;95.39;102086.28;10376530;28;20048;-77
2023/01/25 06:12:21;;;;;;;2.85;1.13;;;;;;;-1.89;95.52;102097.91;10377208;28;20048;-77
2023/01/25 06:17:22;;;;;;;1.98;0.82;;;;;;;-1.78;95.11;102096.75;10376804;28;20137;-78
2023/01/25 06:22:22;;;;;;;2.60;0.80;;;;;;;-2.18;95.43;102005.03;10376667;28;20045;-78
2023/01/25 06:27:23;;;;;;;3.25;0.80;;;;;;;-1.57;95.52;102069.19;10376804;28;20050;-77
2023/01/25 06:32:24;;;;;;;3.05;0.77;;;;;;;-1.99;95.27;101981.91;10376023;28;20045;-78
2023/01/25 06:37:25;;;;;;;4.07;0.80;;;;;;;-1.29;96.13;102087.41;10375867;28;20045;-78
2023/01/25 06:42:26;;;;;;;6.60;1.30;;;;;;;-1.24;95.86;102086.38;10375179;28;20041;-78
2023/01/25 06:47:26;;;;;;;9.27;0.98;;;;;;;-0.93;95.45;102094.06;10375586;28;20049;-78
2023/01/25 06:52:27;;;;;;;6.28;1.45;;;;;;;-1.07;95.12;102038.88;10375160;28;20134;-79
2023/01/25 06:57:28;;;;;;;2.72;1.08;;;;;;;-0.60;94.69;102087.72;10375216;28;20042;-79
2023/01/25 07:02:29;;;;;;;4.93;1.23;;;;;;;-1.03;94.97;101993.53;10374988;28;20042;-80
2023/01/25 07:07:29;;;;;;;6.97;1.15;;;;;;;-0.40;94.52;102087.03;10374168;28;20037;-80
2023/01/25 07:12:30;;;;;;;2.30;0.90;;;;;;;-0.29;94.56;102061.38;10374758;28;20046;-80
2023/01/25 07:17:31;;;;;;;4.18;1.20;;;;;;;-0.49;93.71;102007.28;10374642;28;20072;-81
2023/01/25 07:22:33;;;;;;;8.82;1.10;;;;;;;0.09;93.43;102080.00;10373781;28;20037;-81
2023/01/25 07:27:34;;;;;;;3.53;1.05;;;;;;;0.27;93.57;102071.47;10374286;28;20038;-81
2023/01/25 07:32:35;;;;;;;5.82;1.10;;;;;;;0.43;93.34;102074.34;10373875;28;20046;-81
2023/01/25 07:37:35;;;;;;;3.35;1.10;;;;;;;0.51;92.31;102063.56;10374210;28;20442;-82
2023/01/25 07:42:36;;;;;;;2.33;1.00;;;;;;;0.08;91.99;101976.38;10373560;28;20132;-82
2023/01/25 07:47:37;;;;;;;3.58;0.90;;;;;;;0.86;91.74;102068.22;10373497;28;20084;-82
2023/01/25 07:52:38;;;;;;;4.68;0.80;;;;;;;1.18;91.24;102063.41;10373426;28;20050;-82
2023/01/25 07:57:38;;;;;;;4.60;0.90;;;;;;;1.27;90.60;102049.91;10373686;28;20060;-79
2023/01/25 08:02:39;;;;;;;8.38;1.20;;;;;;;1.58;90.02;102052.03;10372677;28;20048;-82
2023/01/25 08:07:40;;;;;;;3.28;1.13;;;;;;;1.75;89.55;102019.84;10371526;28;20132;-82
2023/01/25 08:12:45;;;;;;;4.30;1.27;;;;;;;1.66;88.02;101962.63;10372618;28;20061;-82
2023/01/25 08:17:45;;;;;;;2.97;0.95;;;;;;;2.00;87.56;101953.19;10372445;28;20057;-82
2023/01/25 08:22:46;;;;;;;3.25;0.93;;;;;;;2.47;86.26;102012.97;10371620;28;20073;-81
2023/01/25 08:27:47;;;;;;;2.25;1.00;;;;;;;2.44;85.95;101993.00;10371714;28;20061;-82
2023/01/25 08:32:47;;;;;;;10.38;1.08;;;;;;;2.66;84.92;101981.44;10372340;28;20064;-82
2023/01/25 08:37:48;;;;;;;5.07;1.00;;;;;;;3.02;83.87;101973.50;10371744;28;20060;-83
2023/01/25 08:42:49;;;;;;;6.32;1.63;;;;;;;2.83;82.78;101914.97;10372465;28;20080;-83
2023/01/25 08:47:49;;;;;;;3.25;1.17;;;;;;;3.14;81.51;101967.59;10371391;28;20096;-83
2023/01/25 08:52:50;;;;;;;2.85;1.00;;;;;;;3.66;79.71;101985.81;10371252;28;20064;-82
2023/01/25 08:57:51;;;;;;;5.32;1.13;;;;;;;3.70;79.02;101990.91;10372101;28;20632;-82
2023/01/25 09:02:52;;;;;;;5.20;1.50;;;;;;;4.07;77.85;101985.34;10371460;28;20109;-81
2023/01/25 09:07:52;;;;;;;2.50;1.00;;;;;;;4.49;75.75;101961.94;10371840;28;20038;-82
2023/01/25 09:12:53;;;;;;;3.03;0.93;;;;;;;4.72;74.39;101955.31;10370853;28;20077;-83
2023/01/25 09:17:55;;;;;;;7.72;1.33;;;;;;;5.11;73.38;101961.78;10371818;28;20121;-81
2023/01/25 09:22:56;;;;;;;4.13;0.70;;;;;;;5.14;73.27;101941.34;10372048;28;20050;-81
2023/01/25 09:27:57;;;;;;;2.28;0.60;;;;;;;4.62;71.26;101872.56;10371687;28;20046;-80
2023/01/25 09:32:57;;;;;;;3.50;0.93;;;;;;;4.54;70.95;101855.44;10374121;28;20088;-81
2023/01/25 09:37:58;;;;;;;9.98;1.17;;;;;;;5.05;70.44;101936.63;10378579;28;20050;-83
2023/01/25 09:43:05;;;;;;;1.35;0.50;;;;;;;5.06;69.43;101933.09;10377710;28;20124;-82
2023/01/25 09:48:41;;;;;;;3.30;0.73;;;;;;;5.00;68.66;101926.41;10377895;28;20451;-80
2023/01/25 09:53:55;;;;;;;3.47;0.68;;;;;;;4.24;67.16;101836.22;10376785;28;20449;-81
2023/01/25 09:58:59;;;;;;;3.40;0.57;;;;;;;4.55;68.17;101898.41;10377629;28;20036;-81
2023/01/25 10:04:06;;;;;;;4.13;0.80;;;;;;;4.37;67.57;101831.94;10377341;28;20076;-82
2023/01/25 10:09:31;;;;;;;3.95;0.88;;;;;;;4.93;68.01;101905.78;10377575;28;20049;-83
2023/01/25 10:14:34;;;;;;;3.05;0.88;;;;;;;4.80;67.37;101885.47;10376261;28;20042;-82
2023/01/25 10:19:44;;;;;;;2.25;0.60;;;;;;;4.87;66.91;101896.47;10377739;28;20494;-83
2023/01/25 10:25:17;;;;;;;3.53;0.85;;;;;;;5.06;67.05;101884.84;10376825;28;20057;-83
2023/01/25 10:30:30;;;;;;;4.25;0.90;;;;;;;4.49;65.38;101786.47;10376561;28;20457;-84
2023/01/25 10:35:35;;;;;;;2.45;0.70;;;;;;;4.69;66.97;101834.41;10376209;28;20095;-81
2023/01/25 10:40:57;;;;;;;3.90;0.80;;;;;;;4.85;63.82;101844.88;10376405;28;20048;-83
2023/01/25 10:45:58;;;;;;;3.85;0.50;;;;;;;5.13;65.66;101855.38;10375420;28;20073;-83
2023/01/25 10:50:59;;;;;;;3.75;0.68;;;;;;;5.16;62.33;101862.25;10375990;28;20073;-84
2023/01/25 10:56:16;;;;;;;1.40;0.50;;;;;;;4.11;60.80;101701.97;10375325;28;20048;-83
2023/01/25 11:01:27;;;;;;;3.10;0.77;;;;;;;4.95;62.89;101853.88;10375273;28;20040;-84
2023/01/25 11:06:30;;;;;;;2.75;0.70;;;;;;;4.90;63.29;101827.81;10374565;28;20050;-83
2023/01/25 11:11:37;;;;;;;3.55;0.70;;;;;;;5.18;63.23;101855.94;10374766;28;20045;-83
2023/01/25 11:16:39;;;;;;;1.63;0.68;;;;;;;4.67;62.96;101771.34;10374104;28;20120;-83
2023/01/25 11:21:51;;;;;;;1.58;0.57;;;;;;;4.56;60.11;101766.72;10373879;28;20062;-83
2023/01/25 11:27:20;;;;;;;3.97;0.70;;;;;;;5.07;61.27;101860.19;10373723;28;20264;-83
2023/01/25 11:32:23;;;;;;;3.40;0.80;;;;;;;4.06;61.91;101683.00;10374045;28;20067;-80
2023/01/25 11:37:30;;;;;;;3.73;0.60;;;;;;;4.94;61.12;101854.84;10373619;28;20602;-83
2023/01/25 11:42:58;;;;;;;1.90;0.60;;;;;;;4.94;62.10;101850.41;10373131;28;20045;-84
2023/01/25 11:48:11;;;;;;;3.30;0.50;;;;;;;4.42;62.25;101744.81;10372194;28;20430;-84
2023/01/25 11:53:36;;;;;;;4.18;0.90;;;;;;;5.00;62.05;101854.44;10371625;28;20096;-83
2023/01/25 11:58:59;;;;;;;2.30;0.60;;;;;;;5.01;61.36;101848.22;10373830;28;20045;-83
2023/01/25 12:04:18;;;;;;;3.25;0.80;;;;;;;4.87;61.11;101853.50;10372826;28;20520;-82
2023/01/25 12:09:52;;;;;;;3.80;0.60;;;;;;;4.77;62.31;101854.06;10372406;28;20042;-82
2023/01/25 12:14:55;;;;;;;3.25;0.95;;;;;;;4.80;63.12;101845.97;10372733;28;20038;-83
2023/01/25 12:20:23;;;;;;;2.28;0.60;;;;;;;4.84;61.36;101846.63;10363350;28;20058;-81
2023/01/25 12:26:01;;;;;;;3.17;0.50;;;;;;;3.82;62.12;101686.16;10340427;28;20430;-82
2023/01/25 12:31:09;;;;;;;4.32;0.98;;;;;;;4.25;62.59;101778.28;10332492;28;20133;-80
2023/01/25 12:36:21;;;;;;;2.75;0.60;;;;;;;4.55;61.93;101851.88;10361133;28;20057;-81
2023/01/25 12:41:38;;;;;;;1.70;0.60;;;;;;;4.36;62.43;101840.75;10362677;28;20041;-79
2023/01/25 12:46:48;;;;;;;2.45;0.73;;;;;;;4.36;62.97;101859.16;10365887;28;20050;-78
2023/01/25 12:51:52;;;;;;;1.95;0.50;;;;;;;4.11;63.91;101834.31;10360955;28;20038;-77
2023/01/25 12:57:26;;;;;;;5.60;1.02;;;;;;;4.25;64.44;101864.25;10366886;28;20520;-77
2023/01/25 13:03:16;;;;;;;4.65;0.88;;;;;;;4.13;63.73;101863.16;10368388;28;20119;-77
2023/01/25 13:08:41;;;;;;;2.85;0.98;;;;;;;4.05;63.74;101868.03;10335234;28;20038;-78
2023/01/25 13:13:42;;;;;;;8.05;1.75;;;;;;;3.84;64.44;101854.31;10371721;28;20521;-77
2023/01/25 13:18:46;;;;;;;3.63;0.80;;;;;;;3.73;64.87;101860.16;10378803;28;20065;-76
2023/01/25 13:24:17;;;;;;;23.53;2.70;;;;;;;3.48;65.30;101823.94;10379152;28;20049;-77
2023/01/25 13:29:53;;;;;;;11.88;1.90;;;;;;;3.55;65.75;101863.84;10378304;28;20295;-77
2023/01/25 13:34:54;;;;;;;2.90;0.60;;;;;;;3.40;65.91;101862.91;10377464;28;20088;-77
2023/01/25 13:39:59;;;;;;;5.75;1.00;;;;;;;3.29;66.16;101867.88;10351614;28;20462;-76
2023/01/25 13:45:19;;;;;;;5.88;0.50;;;;;;;3.19;66.01;101871.00;10377044;28;20057;-80
2023/01/25 13:50:26;;;;;;;5.10;0.73;;;;;;;3.01;66.59;101864.13;10359005;28;20073;-86
2023/01/25 13:55:36;;;;;;;3.08;0.43;;;;;;;2.57;67.04;101835.81;10331615;28;20104;-78
2023/01/25 14:00:45;;;;;;;2.20;0.50;;;;;;;2.59;67.49;101859.38;10353033;28;20042;-80
2023/01/25 14:05:53;;;;;;;6.00;0.90;;;;;;;2.52;67.82;101869.34;10355322;28;20121;-81
2023/01/25 14:10:55;;;;;;;3.60;0.80;;;;;;;2.28;68.15;101867.03;10353172;28;20041;-80
2023/01/25 14:16:03;;;;;;;6.82;1.50;;;;;;;1.68;68.33;101797.53;10349924;28;20080;-82
2023/01/25 14:21:18;;;;;;;4.50;1.00;;;;;;;1.72;68.75;101831.34;10350772;28;20060;-82
2023/01/25 14:26:25;;;;;;;8.20;1.50;;;;;;;1.57;69.10;101856.50;10349182;28;20441;-81
2023/01/25 14:31:34;;;;;;;7.68;2.47;;;;;;;1.12;69.46;101810.63;10351365;28;20563;-83
2023/01/25 14:36:34;;;;;;;10.48;2.35;;;;;;;0.56;69.58;101760.91;10365100;28;20042;-81
2023/01/25 14:41:41;;;;;;;16.48;1.98;;;;;;;1.08;70.41;101871.06;10347055;28;20501;-83
2023/01/25 14:46:41;;;;;;;3.97;1.20;;;;;;;0.25;70.28;101764.88;10352785;28;20057;-79
2023/01/25 14:51:52;;;;;;;9.38;1.02;;;;;;;0.24;70.55;101799.78;10338378;28;20498;-82
2023/01/25 14:57:01;;;;;;;3.72;0.90;;;;;;;0.56;71.09;101870.72;10334928;28;20509;-82
2023/01/25 15:02:12;;;;;;;11.45;1.25;;;;;;;0.37;71.59;101866.28;10355762;28;20073;-82
2023/01/25 15:07:41;;;;;;;6.25;1.30;;;;;;;0.05;71.89;101831.03;10375357;28;20046;-82
2023/01/25 15:12:55;;;;;;;11.10;1.23;;;;;;;-0.08;71.97;101843.78;10372930;28;20520;-82
2023/01/25 15:17:56;;;;;;;4.95;0.98;;;;;;;-0.18;71.79;101834.63;10372994;28;20064;-81
2023/01/25 15:23:24;;;;;;;5.75;1.45;;;;;;;-0.04;71.75;101868.00;10374551;28;20058;-81
2023/01/25 15:28:33;;;;;;;22.65;4.93;;;;;;;-0.22;71.34;101860.91;10371316;28;20688;-81
2023/01/25 15:33:34;;;;;;;15.98;4.05;;;;;;;-0.68;70.33;101787.88;10371211;28;20072;-78
2023/01/25 15:38:34;;;;;;;5.63;1.80;;;;;;;-0.31;69.39;101854.28;10372228;28;20046;-77
2023/01/25 15:43:35;;;;;;;6.50;1.60;;;;;;;-0.93;67.97;101773.19;10370965;28;20030;-77
2023/01/25 15:48:43;;;;;;;2.80;0.85;;;;;;;-0.61;65.88;101841.53;10372024;28;20065;-77
2023/01/25 15:53:45;;;;;;;2.08;0.60;;;;;;;-0.77;65.49;101819.56;10371426;28;20133;-75
2023/01/25 15:58:52;;;;;;;1.52;0.32;;;;;;;-0.91;64.16;101814.84;10373293;28;20132;-77
2023/01/25 16:03:54;;;;;;;4.07;0.40;;;;;;;-0.78;62.93;101846.53;10372018;28;20417;-77
2023/01/25 16:08:57;;;;;;;0.85;0.40;;;;;;;-0.79;63.15;101865.72;10371900;28;20445;-78
2023/01/25 16:13:58;;;;;;;3.65;0.35;;;;;;;-1.32;61.22;101798.13;10367424;28;20041;-79
2023/01/25 16:19:00;;;;;;;2.03;0.40;;;;;;;-0.82;60.87;101878.88;10371325;28;20164;-80
2023/01/25 16:24:00;;;;;;;3.50;1.00;;;;;;;-1.05;59.87;101851.03;10374479;28;20042;-86
2023/01/25 16:29:01;;;;;;;3.58;1.40;;;;;;;-1.09;59.79;101865.09;10373177;28;20050;-82
2023/01/25 16:34:02;;;;;;;1.90;0.60;;;;;;;-1.28;55.69;101834.47;10371966;28;20046;-82
2023/01/25 16:39:24;;;;;;;6.00;0.93;;;;;;;-1.29;55.98;101843.19;10370620;28;20034;-79
2023/01/25 16:44:24;;;;;;;2.63;0.70;;;;;;;-1.10;59.21;101887.72;10379284;28;20042;-82
2023/01/25 16:49:26;;;;;;;3.42;0.32;;;;;;;-1.75;59.88;101823.97;10368793;28;20406;-82
2023/01/25 16:54:27;;;;;;;1.08;0.25;;;;;;;-2.08;60.79;101787.75;10358677;28;20041;-83
2023/01/25 16:59:28;;;;;;;1.98;0.40;;;;;;;-1.58;59.50;101851.22;10352686;28;20179;-84
2023/01/25 17:04:28;;;;;;;2.63;0.40;;;;;;;-1.82;58.47;101801.66;10364974;28;20046;-84
2023/01/25 17:09:29;;;;;;;9.07;0.30;;;;;;;-1.44;59.34;101895.88;10380023;28;20075;-84
2023/01/25 17:14:30;;;;;;;1.67;0.38;;;;;;;-2.05;59.64;101796.38;10380310;28;20053;-85
2023/01/25 17:19:31;;;;;;;2.38;0.52;;;;;;;-2.43;60.22;101755.06;10379712;28;20050;-85
2023/01/25 17:24:34;;;;;;;1.42;0.50;;;;;;;-1.56;60.45;101907.56;10359343;28;20136;-86
2023/01/25 17:29:35;;;;;;;4.68;0.70;;;;;;;-1.64;61.29;101915.66;10357475;28;20048;-85
2023/01/25 17:34:36;;;;;;;0.80;0.40;;;;;;;-1.97;61.40;101872.50;10360834;28;20445;-84
2023/01/25 17:39:36;;;;;;;2.50;0.60;;;;;;;-1.88;60.88;101893.03;10352136;28;20042;-86
2023/01/25 17:44:37;;;;;;;1.40;0.40;;;;;;;-3.29;61.10;101679.78;10373011;28;20050;-84
2023/01/25 17:49:38;;;;;;;1.55;0.52;;;;;;;-2.89;60.84;101751.34;10356030;28;20050;-85
2023/01/25 17:54:39;;;;;;;2.70;0.60;;;;;;;-3.10;60.57;101718.19;10356900;28;20104;-84
2023/01/25 17:59:39;;;;;;;2.22;0.55;;;;;;;-2.90;60.64;101764.38;10379747;28;20441;-84
2023/01/25 18:04:40;;;;;;;3.05;0.52;;;;;;;-2.95;60.71;101774.94;10379219;28;20037;-83
2023/01/25 18:09:41;;;;;;;0.68;0.30;;;;;;;-2.83;60.72;101810.13;10378622;28;20044;-83
2023/01/25 18:14:43;;;;;;;2.60;0.60;;;;;;;-2.37;60.63;101890.19;10377633;28;20045;-83
2023/01/25 18:19:44;;;;;;;1.92;0.50;;;;;;;-3.19;60.81;101752.28;10377885;28;20115;-82
2023/01/25 18:24:45;;;;;;;0.73;0.30;;;;;;;-3.43;60.18;101733.06;10377828;28;20100;-82
2023/01/25 18:29:54;;;;;;;1.13;0.40;;;;;;;-3.34;60.08;101758.75;10377030;28;20042;-83
2023/01/25 18:34:55;;;;;;;1.80;0.47;;;;;;;-3.44;60.44;101755.56;10376404;28;20041;-82
2023/01/25 18:39:56;;;;;;;4.95;0.70;;;;;;;-3.58;60.70;101749.94;10377981;28;20042;-80
2023/01/25 18:44:57;;;;;;;6.25;0.68;;;;;;;-3.69;61.39;101752.81;10376403;28;20056;-80
2023/01/25 18:49:58;;;;;;;1.92;0.60;;;;;;;-3.00;60.51;101868.66;10375522;28;20544;-80
2023/01/25 18:54:58;;;;;;;4.03;0.55;;;;;;;-3.57;60.80;101768.06;10375896;28;20544;-80
2023/01/25 18:59:59;;;;;;;3.50;0.80;;;;;;;-3.82;60.60;101726.34;10376190;28;20041;-80
2023/01/25 19:05:00;;;;;;;3.50;0.55;;;;;;;-3.55;60.48;101794.00;10374723;28;20046;-80
2023/01/25 19:10:01;;;;;;;1.60;0.60;;;;;;;-4.01;60.91;101749.34;10376689;28;20046;-82
2023/01/25 19:15:02;;;;;;;7.93;1.20;;;;;;;-3.61;61.44;101849.56;10375782;28;20073;-81
2023/01/25 19:20:04;;;;;;;2.25;0.40;;;;;;;-3.58;61.75;101870.25;10375118;28;20060;-81
2023/01/25 19:25:05;;;;;;;2.90;0.73;;;;;;;-5.06;62.34;101624.03;10374553;28;20065;-80
2023/01/25 19:30:06;;;;;;;4.80;0.57;;;;;;;-4.76;62.80;101694.16;10373461;28;20045;-80
2023/01/25 19:35:07;;;;;;;3.00;0.60;;;;;;;-4.00;63.30;101820.28;10373484;28;20053;-80
2023/01/25 19:40:09;;;;;;;2.40;0.73;;;;;;;-4.69;63.57;101700.91;10373875;28;20044;-80
2023/01/25 19:45:10;;;;;;;11.77;0.80;;;;;;;-4.44;63.94;101749.56;10373320;28;20041;-79
2023/01/25 19:50:11;;;;;;;2.20;0.60;;;;;;;-5.16;64.00;101630.31;10372487;28;20033;-80
2023/01/25 19:55:12;;;;;;;2.78;0.73;;;;;;;-4.21;64.09;101811.28;10373600;28;20046;-80
2023/01/25 20:00:13;;;;;;;1.33;0.47;;;;;;;-4.79;64.20;101722.75;10372648;28;20405;-79
2023/01/25 20:05:14;;;;;;;2.67;0.70;;;;;;;-4.61;64.04;101775.91;10373630;28;20042;-79
2023/01/25 20:10:15;;;;;;;4.82;0.80;;;;;;;-4.46;64.20;101808.41;10372535;28;20034;-78
2023/01/25 20:15:16;;;;;;;3.42;0.70;;;;;;;-5.01;64.97;101725.00;10372259;28;20077;-77
2023/01/25 20:20:17;;;;;;;2.40;0.80;;;;;;;-4.49;65.34;101808.47;10372556;28;20089;-78
2023/01/25 20:25:17;;;;;;;4.32;0.90;;;;;;;-4.93;65.46;101756.78;10371248;28;20038;-77
2023/01/25 20:30:18;;;;;;;3.47;0.77;;;;;;;-5.07;65.66;101745.84;10370477;28;20046;-77
2023/01/25 20:35:19;;;;;;;3.50;1.00;;;;;;;-6.62;66.06;101521.38;10371260;28;20041;-77
2023/01/25 20:40:20;;;;;;;2.50;0.80;;;;;;;-5.08;66.65;101804.59;10372094;28;20049;-77
2023/01/25 20:45:20;;;;;;;7.15;1.15;;;;;;;-5.31;66.78;101778.31;10371806;28;20363;-76
2023/01/25 20:50:21;;;;;;;2.80;1.20;;;;;;;-5.46;67.41;101771.72;10369729;28;20576;-77
2023/01/25 20:55:22;;;;;;;10.18;5.22;;;;;;;-5.73;68.22;101752.41;10371168;28;20128;-76
2023/01/25 21:00:24;;;;;;;23.52;11.07;;;;;;;-6.29;68.77;101650.88;10371154;28;20042;-76
2023/01/25 21:05:25;;;;;;;18.50;9.05;;;;;;;-5.91;69.07;101714.78;10372104;28;20572;-76
2023/01/25 21:10:26;;;;;;;38.08;17.88;;;;;;;-6.92;68.98;101539.16;10370393;28;20051;-76
2023/01/25 21:15:27;;;;;;;17.73;8.60;;;;;;;-5.73;68.86;101731.69;10369824;28;20482;-76
2023/01/25 21:20:28;;;;;;;34.83;16.15;;;;;;;-6.17;68.93;101658.41;10371340;28;20054;-76
2023/01/25 21:25:29;;;;;;;34.33;15.30;;;;;;;-6.48;69.18;101621.94;10370463;28;20435;-76
2023/01/25 21:30:30;;;;;;;13.63;6.50;;;;;;;-5.69;69.36;101750.59;10376480;28;20045;-76
2023/01/25 21:35:32;;;;;;;22.50;9.40;;;;;;;-5.56;69.59;101771.06;10377058;28;20038;-72
2023/01/25 21:40:33;;;;;;;13.60;6.75;;;;;;;-5.90;70.14;101726.00;10377460;28;20038;-76
2023/01/25 21:56:16;;;;;;;6.60;3.25;;;;;;;-6.39;70.34;101703.66;10378021;28;20091;-75
2023/01/25 22:01:18;;;;;;;4.07;1.98;;;;;;;-6.91;70.58;101617.50;10377090;28;20091;-75
2023/01/25 22:06:20;;;;;;;7.28;2.20;;;;;;;-6.75;70.89;101639.63;10377124;28;20053;-75
2023/01/25 22:11:20;;;;;;;6.35;2.00;;;;;;;-6.72;71.41;101654.22;10375885;28;20096;-75
2023/01/25 22:16:21;;;;;;;3.75;1.92;;;;;;;-6.49;71.26;101683.13;10376973;28;20140;-75
2023/01/25 22:21:29;;;;;;;8.45;2.33;;;;;;;-7.49;71.47;101523.78;10374855;28;20534;-74
2023/01/25 22:27:02;;;;;;;5.15;2.25;;;;;;;-8.21;72.18;101415.69;10375795;28;20100;-75
2023/01/25 22:32:03;;;;;;;5.00;1.93;;;;;;;-7.54;71.41;101568.59;10373994;28;20046;-74
2023/01/25 22:37:04;;;;;;;5.03;2.22;;;;;;;-7.65;71.84;101548.97;10374799;28;20057;-74
2023/01/25 22:42:04;;;;;;;10.35;3.28;;;;;;;-6.27;72.52;101756.00;10375424;28;20156;-74
2023/01/25 22:47:05;;;;;;;10.48;5.80;;;;;;;-7.22;72.45;101612.84;10374396;28;20072;-74
2023/01/25 22:52:06;;;;;;;12.85;5.18;;;;;;;-7.62;72.34;101563.56;10374485;28;20061;-73
2023/01/25 22:57:07;;;;;;;8.63;5.07;;;;;;;-7.16;72.59;101651.47;10375107;28;20453;-74
2023/01/25 23:02:07;;;;;;;13.45;5.50;;;;;;;-7.78;73.01;101537.09;10374346;28;20049;-75
2023/01/25 23:07:17;;;;;;;10.00;5.00;;;;;;;-7.08;73.17;101697.84;10375592;28;20049;-74
2023/01/25 23:12:19;;;;;;;12.55;4.88;;;;;;;-7.93;73.70;101545.91;10374466;28;20077;-76
2023/01/25 23:22:41;;;;;;;11.57;4.47;;;;;;;-7.13;74.26;101695.31;10374721;28;20498;-74
2023/01/25 23:27:41;;;;;;;8.50;3.08;;;;;;;-6.78;74.40;101763.72;10373469;28;20077;-74
2023/01/25 23:32:44;;;;;;;9.50;2.80;;;;;;;-8.55;74.82;101484.06;10373802;28;20042;-75
2023/01/25 23:37:46;;;;;;;11.80;3.15;;;;;;;-6.86;75.08;101750.03;10371713;28;20034;-75
2023/01/25 23:42:46;;;;;;;3.75;1.90;;;;;;;-7.82;75.18;101610.25;10372410;28;20084;-76